sensor_id;sensor_type;location;lat;lon;timestamp;pressure;altitude;pressure_sealevel;temperature;humidity
66560;BME280;53413;49.878;8.142;2022-11-20T00:01:09;99567.78;;;2.35;100.00
66560;BME280;53413;49.878;8.142;2022-11-20T00:03:35;99562.66;;;2.32;100.00
66560;BME280;53413;49.878;8.142;2022-11-20T00:06:01;99564.31;;;2.36;100.00
66560;BME280;53413;49.878;8.142;2022-11-20T00:08:27;99566.03;;;2.37;100.00
66560;BME280;53413;49.878;8.142;2022-11-20T00:10:52;99556.50;;;2.42;100.00
66560;BME280;53413;49.878;8.142;2022-11-20T00:13:18;99562.50;;;2.43;100.00
66560;BME280;53413;49.878;8.142;2022-11-20T00:15:43;99553.03;;;2.43;100.00
66560;BME280;53413;49.878;8.142;2022-11-20T00:18:09;99553.91;;;2.42;100.00
66560;BME280;53413;49.878;8.142;2022-11-20T00:20:34;99559.97;;;2.40;100.00
66560;BME280;53413;49.878;8.142;2022-11-20T00:22:59;99559.94;;;2.41;100.00
66560;BME280;53413;49.878;8.142;2022-11-20T00:25:25;99556.50;;;2.41;100.00
66560;BME280;53413;49.878;8.142;2022-11-20T00:27:50;99562.47;;;2.46;100.00
66560;BME280;53413;49.878;8.142;2022-11-20T00:30:15;99556.50;;;2.41;100.00
66560;BME280;53413;49.878;8.142;2022-11-20T00:32:41;99565.94;;;2.45;100.00
66560;BME280;53413;49.878;8.142;2022-11-20T00:35:06;99561.50;;;2.55;100.00
66560;BME280;53413;49.878;8.142;2022-11-20T00:37:32;99560.56;;;2.59;100.00
66560;BME280;53413;49.878;8.142;2022-11-20T00:39:57;99557.09;;;2.65;100.00
66560;BME280;53413;49.878;8.142;2022-11-20T00:42:22;99544.06;;;2.71;100.00
66560;BME280;53413;49.878;8.142;2022-11-20T00:44:48;99532.97;;;2.61;100.00
66560;BME280;53413;49.878;8.142;2022-11-20T00:47:13;99533.09;;;2.52;100.00
66560;BME280;53413;49.878;8.142;2022-11-20T00:49:38;99540.06;;;2.45;100.00
66560;BME280;53413;49.878;8.142;2022-11-20T00:52:04;99545.25;;;2.46;100.00
66560;BME280;53413;49.878;8.142;2022-11-20T00:54:29;99540.94;;;2.44;100.00
66560;BME280;53413;49.878;8.142;2022-11-20T00:56:54;99541.81;;;2.43;100.00
66560;BME280;53413;49.878;8.142;2022-11-20T00:59:20;99547.88;;;2.42;100.00
66560;BME280;53413;49.878;8.142;2022-11-20T01:01:45;99544.41;;;2.43;100.00
66560;BME280;53413;49.878;8.142;2022-11-20T01:04:10;99553.03;;;2.43;100.00
66560;BME280;53413;49.878;8.142;2022-11-20T01:06:37;99556.34;;;2.53;100.00
66560;BME280;53413;49.878;8.142;2022-11-20T01:09:09;99554.59;;;2.57;100.00
66560;BME280;53413;49.878;8.142;2022-11-20T01:11:37;99552.78;;;2.62;100.00
66560;BME280;53413;49.878;8.142;2022-11-20T01:14:05;99545.91;;;2.63;100.00
66560;BME280;53413;49.878;8.142;2022-11-20T01:19:00;99545.09;;;2.57;100.00
66560;BME280;53413;49.878;8.142;2022-11-20T01:21:37;99548.56;;;2.58;100.00
66560;BME280;53413;49.878;8.142;2022-11-20T01:24:04;99542.53;;;2.56;100.00
66560;BME280;53413;49.878;8.142;2022-11-20T01:26:33;99540.78;;;2.58;100.00
66560;BME280;53413;49.878;8.142;2022-11-20T01:29:00;99533.94;;;2.54;100.00
66560;BME280;53413;49.878;8.142;2022-11-20T01:31:30;99540.81;;;2.53;100.00
66560;BME280;53413;49.878;8.142;2022-11-20T01:34:00;99544.25;;;2.55;100.00
66560;BME280;53413;49.878;8.142;2022-11-20T01:36:28;99545.13;;;2.56;100.00
66560;BME280;53413;49.878;8.142;2022-11-20T01:38:55;99540.81;;;2.55;100.00
66560;BME280;53413;49.878;8.142;2022-11-20T01:41:22;99539.06;;;2.57;100.00
66560;BME280;53413;49.878;8.142;2022-11-20T01:44:06;99541.66;;;2.55;100.00
66560;BME280;53413;49.878;8.142;2022-11-20T01:46:35;99544.25;;;2.57;100.00
66560;BME280;53413;49.878;8.142;2022-11-20T01:49:23;99532.09;;;2.62;100.00
66560;BME280;53413;49.878;8.142;2022-11-20T01:51:57;99527.72;;;2.67;100.00
66560;BME280;53413;49.878;8.142;2022-11-20T01:54:38;99525.13;;;2.67;100.00
66560;BME280;53413;49.878;8.142;2022-11-20T01:57:06;99525.09;;;2.70;100.00
66560;BME280;53413;49.878;8.142;2022-11-20T01:59:37;99514.69;;;2.73;100.00
66560;BME280;53413;49.878;8.142;2022-11-20T02:02:04;99523.31;;;2.72;100.00
66560;BME280;53413;49.878;8.142;2022-11-20T02:04:30;99520.75;;;2.74;100.00
66560;BME280;53413;49.878;8.142;2022-11-20T02:07:00;99523.28;;;2.75;100.00
66560;BME280;53413;49.878;8.142;2022-11-20T02:09:27;99525.00;;;2.76;100.00
66560;BME280;53413;49.878;8.142;2022-11-20T02:11:53;99522.44;;;2.75;100.00
66560;BME280;53413;49.878;8.142;2022-11-20T02:14:19;99521.63;;;2.73;100.00
66560;BME280;53413;49.878;8.142;2022-11-20T02:16:47;99523.28;;;2.75;100.00
66560;BME280;53413;49.878;8.142;2022-11-20T02:19:23;99519.75;;;2.81;100.00
66560;BME280;53413;49.878;8.142;2022-11-20T02:22:02;99520.63;;;2.80;100.00
66560;BME280;53413;49.878;8.142;2022-11-20T02:24:30;99512.88;;;2.82;100.00
66560;BME280;53413;49.878;8.142;2022-11-20T02:27:00;99512.00;;;2.81;100.00
66560;BME280;53413;49.878;8.142;2022-11-20T02:29:34;99516.38;;;2.77;100.00
66560;BME280;53413;49.878;8.142;2022-11-20T02:32:02;99507.72;;;2.79;100.00
66560;BME280;53413;49.878;8.142;2022-11-20T02:34:28;99503.41;;;2.81;100.00
66560;BME280;53413;49.878;8.142;2022-11-20T02:36:55;99501.69;;;2.78;100.00
66560;BME280;53413;49.878;8.142;2022-11-20T02:39:24;99502.63;;;2.72;100.00
66560;BME280;53413;49.878;8.142;2022-11-20T02:41:52;99505.22;;;2.72;100.00
66560;BME280;53413;49.878;8.142;2022-11-20T02:44:17;99498.38;;;2.70;100.00
66560;BME280;53413;49.878;8.142;2022-11-20T02:46:43;99507.03;;;2.66;100.00
66560;BME280;53413;49.878;8.142;2022-11-20T02:49:08;99510.47;;;2.68;100.00
66560;BME280;53413;49.878;8.142;2022-11-20T02:51:33;99505.34;;;2.65;100.00
66560;BME280;53413;49.878;8.142;2022-11-20T02:53:59;99505.31;;;2.66;100.00
66560;BME280;53413;49.878;8.142;2022-11-20T02:56:24;99513.88;;;2.70;100.00
66560;BME280;53413;49.878;8.142;2022-11-20T02:58:50;99512.97;;;2.74;100.00
66560;BME280;53413;49.878;8.142;2022-11-20T03:01:16;99512.94;;;2.75;100.00
66560;BME280;53413;49.878;8.142;2022-11-20T03:03:41;99502.59;;;2.75;100.00
66560;BME280;53413;49.878;8.142;2022-11-20T03:06:07;99514.69;;;2.75;100.00
66560;BME280;53413;49.878;8.142;2022-11-20T03:08:33;99508.56;;;2.81;100.00
66560;BME280;53413;49.878;8.142;2022-11-20T03:11:02;99509.44;;;2.80;100.00
66560;BME280;53413;49.878;8.142;2022-11-20T03:13:29;99510.31;;;2.77;100.00
66560;BME280;53413;49.878;8.142;2022-11-20T03:15:54;99488.75;;;2.78;100.00
66560;BME280;53413;49.878;8.142;2022-11-20T03:18:19;99499.09;;;2.78;100.00
66560;BME280;53413;49.878;8.142;2022-11-20T03:20:45;99497.38;;;2.77;100.00
66560;BME280;53413;49.878;8.142;2022-11-20T03:23:10;99497.38;;;2.79;100.00
66560;BME280;53413;49.878;8.142;2022-11-20T03:25:35;99485.34;;;2.74;100.00
66560;BME280;53413;49.878;8.142;2022-11-20T03:28:01;99493.22;;;2.68;100.00
66560;BME280;53413;49.878;8.142;2022-11-20T03:30:26;99499.19;;;2.72;100.00
66560;BME280;53413;49.878;8.142;2022-11-20T03:32:53;99498.25;;;2.77;100.00
66560;BME280;53413;49.878;8.142;2022-11-20T03:35:18;99502.44;;;2.85;100.00
66560;BME280;53413;49.878;8.142;2022-11-20T03:37:44;99505.91;;;2.84;100.00
66560;BME280;53413;49.878;8.142;2022-11-20T03:40:11;99499.78;;;2.89;100.00
66560;BME280;53413;49.878;8.142;2022-11-20T03:42:36;99497.16;;;2.92;100.00
66560;BME280;53413;49.878;8.142;2022-11-20T03:45:10;99498.00;;;2.95;100.00
66560;BME280;53413;49.878;8.142;2022-11-20T03:47:36;99491.94;;;2.96;100.00
66560;BME280;53413;49.878;8.142;2022-11-20T03:50:02;99491.06;;;2.97;100.00
66560;BME280;53413;49.878;8.142;2022-11-20T03:52:28;99488.56;;;2.92;100.00
66560;BME280;53413;49.878;8.142;2022-11-20T03:54:53;99490.34;;;2.87;100.00
66560;BME280;53413;49.878;8.142;2022-11-20T03:57:18;99492.03;;;2.91;100.00
66560;BME280;53413;49.878;8.142;2022-11-20T03:59:43;99482.53;;;2.90;100.00
66560;BME280;53413;49.878;8.142;2022-11-20T04:02:09;99478.28;;;2.86;100.00
66560;BME280;53413;49.878;8.142;2022-11-20T04:04:34;99484.28;;;2.88;100.00
66560;BME280;53413;49.878;8.142;2022-11-20T04:06:59;99480.88;;;2.86;100.00
66560;BME280;53413;49.878;8.142;2022-11-20T04:09:25;99486.91;;;2.86;100.00
66560;BME280;53413;49.878;8.142;2022-11-20T04:11:50;99474.03;;;2.83;100.00
66560;BME280;53413;49.878;8.142;2022-11-20T04:14:16;99478.28;;;2.86;100.00
66560;BME280;53413;49.878;8.142;2022-11-20T04:16:41;99474.81;;;2.87;100.00
66560;BME280;53413;49.878;8.142;2022-11-20T04:19:13;99470.44;;;2.90;100.00
66560;BME280;53413;49.878;8.142;2022-11-20T04:21:38;99477.41;;;2.88;100.00
66560;BME280;53413;49.878;8.142;2022-11-20T04:24:04;99480.88;;;2.86;100.00
66560;BME280;53413;49.878;8.142;2022-11-20T04:26:30;99477.44;;;2.85;100.00
66560;BME280;53413;49.878;8.142;2022-11-20T04:28:56;99478.28;;;2.86;100.00
66560;BME280;53413;49.878;8.142;2022-11-20T04:31:25;99475.63;;;2.90;100.00
66560;BME280;53413;49.878;8.142;2022-11-20T04:33:51;99472.16;;;2.91;100.00
66560;BME280;53413;49.878;8.142;2022-11-20T04:36:17;99474.81;;;2.87;100.00
66560;BME280;53413;49.878;8.142;2022-11-20T04:38:43;99475.66;;;2.89;100.00
66560;BME280;53413;49.878;8.142;2022-11-20T04:41:17;99479.03;;;2.94;100.00
66560;BME280;53413;49.878;8.142;2022-11-20T04:43:46;99473.03;;;2.92;100.00
66560;BME280;53413;49.878;8.142;2022-11-20T04:46:13;99474.81;;;2.87;100.00
66560;BME280;53413;49.878;8.142;2022-11-20T04:48:38;99481.63;;;2.92;100.00
66560;BME280;53413;49.878;8.142;2022-11-20T04:51:04;99478.09;;;2.98;100.00
66560;BME280;53413;49.878;8.142;2022-11-20T04:53:30;99478.06;;;3.01;100.00
66560;BME280;53413;49.878;8.142;2022-11-20T04:56:06;99465.94;;;3.02;100.00
66560;BME280;53413;49.878;8.142;2022-11-20T04:58:33;99476.34;;;3.00;100.00
66560;BME280;53413;49.878;8.142;2022-11-20T05:01:24;99467.66;;;3.04;100.00
66560;BME280;53413;49.878;8.142;2022-11-20T05:03:50;99469.38;;;3.04;100.00
66560;BME280;53413;49.878;8.142;2022-11-20T05:06:18;99471.22;;;2.97;100.00
66560;BME280;53413;49.878;8.142;2022-11-20T05:08:44;99460.88;;;2.96;100.00
66560;BME280;53413;49.878;8.142;2022-11-20T05:11:11;99467.78;;;2.95;100.00
66560;BME280;53413;49.878;8.142;2022-11-20T05:13:37;99459.16;;;2.96;100.00
66560;BME280;53413;49.878;8.142;2022-11-20T05:16:10;99459.03;;;3.05;100.00
66560;BME280;53413;49.878;8.142;2022-11-20T05:18:37;99459.81;;;3.07;100.00
66560;BME280;53413;49.878;8.142;2022-11-20T05:21:03;99464.06;;;3.12;100.00
66560;BME280;53413;49.878;8.142;2022-11-20T05:23:30;99464.03;;;3.15;100.00
66560;BME280;53413;49.878;8.142;2022-11-20T05:25:56;99463.22;;;3.13;100.00
66560;BME280;53413;49.878;8.142;2022-11-20T05:28:22;99463.16;;;3.14;100.00
66560;BME280;53413;49.878;8.142;2022-11-20T05:30:48;99452.81;;;3.14;100.00
66560;BME280;53413;49.878;8.142;2022-11-20T05:33:14;99434.84;;;3.06;100.00
66560;BME280;53413;49.878;8.142;2022-11-20T05:35:39;99448.88;;;2.93;100.00
66560;BME280;53413;49.878;8.142;2022-11-20T05:38:05;99457.50;;;2.90;100.00
66560;BME280;53413;49.878;8.142;2022-11-20T05:40:30;99451.50;;;2.90;100.00
66560;BME280;53413;49.878;8.142;2022-11-20T05:42:55;99458.38;;;2.89;100.00
66560;BME280;53413;49.878;8.142;2022-11-20T05:45:21;99459.25;;;2.90;100.00
66560;BME280;53413;49.878;8.142;2022-11-20T05:47:46;99466.97;;;2.91;100.00
66560;BME280;53413;49.878;8.142;2022-11-20T05:50:11;99460.88;;;2.96;100.00
66560;BME280;53413;49.878;8.142;2022-11-20T05:52:37;99462.56;;;2.98;100.00
66560;BME280;53413;49.878;8.142;2022-11-20T05:55:02;99455.63;;;3.00;100.00
66560;BME280;53413;49.878;8.142;2022-11-20T05:57:28;99448.66;;;3.05;100.00
66560;BME280;53413;49.878;8.142;2022-11-20T05:59:53;99447.78;;;3.05;100.00
66560;BME280;53413;49.878;8.142;2022-11-20T06:02:18;99440.06;;;3.03;100.00
66560;BME280;53413;49.878;8.142;2022-11-20T06:04:44;99449.63;;;3.00;100.00
66560;BME280;53413;49.878;8.142;2022-11-20T06:07:09;99447.03;;;2.98;100.00
66560;BME280;53413;49.878;8.142;2022-11-20T06:09:34;99440.25;;;2.91;100.00
66560;BME280;53413;49.878;8.142;2022-11-20T06:12:00;99443.75;;;2.88;100.00
66560;BME280;53413;49.878;8.142;2022-11-20T06:14:25;99442.06;;;2.87;100.00
66560;BME280;53413;49.878;8.142;2022-11-20T06:16:50;99443.00;;;2.82;100.00
66560;BME280;53413;49.878;8.142;2022-11-20T06:19:16;99449.84;;;2.84;100.00
66560;BME280;53413;49.878;8.142;2022-11-20T06:21:41;99450.69;;;2.85;100.00
66560;BME280;53413;49.878;8.142;2022-11-20T06:24:09;99448.16;;;2.83;100.00
66560;BME280;53413;49.878;8.142;2022-11-20T06:26:34;99455.00;;;2.86;100.00
66560;BME280;53413;49.878;8.142;2022-11-20T06:29:00;99436.88;;;2.87;100.00
66560;BME280;53413;49.878;8.142;2022-11-20T06:31:26;99451.53;;;2.87;100.00
66560;BME280;53413;49.878;8.142;2022-11-20T06:33:52;99438.59;;;2.88;100.00
66560;BME280;53413;49.878;8.142;2022-11-20T06:36:20;99452.41;;;2.87;100.00
66560;BME280;53413;49.878;8.142;2022-11-20T06:38:46;99426.44;;;2.92;100.00
66560;BME280;53413;49.878;8.142;2022-11-20T06:41:21;99439.34;;;2.93;100.00
66560;BME280;53413;49.878;8.142;2022-11-20T06:43:47;99441.84;;;3.00;100.00
66560;BME280;53413;49.878;8.142;2022-11-20T06:46:14;99446.97;;;3.03;100.00
66560;BME280;53413;49.878;8.142;2022-11-20T06:48:42;99447.78;;;3.05;100.00
66560;BME280;53413;49.878;8.142;2022-11-20T06:51:08;99441.66;;;3.11;100.00
66560;BME280;53413;49.878;8.142;2022-11-20T06:53:34;99453.69;;;3.13;100.00
66560;BME280;53413;49.878;8.142;2022-11-20T06:56:00;99457.97;;;3.16;100.00
66560;BME280;53413;49.878;8.142;2022-11-20T06:58:30;99457.06;;;3.18;100.00
66560;BME280;53413;49.878;8.142;2022-11-20T07:01:07;99457.09;;;3.17;100.00
66560;BME280;53413;49.878;8.142;2022-11-20T07:03:34;99457.16;;;3.14;100.00
66560;BME280;53413;49.878;8.142;2022-11-20T07:06:00;99459.63;;;3.20;100.00
66560;BME280;53413;49.878;8.142;2022-11-20T07:08:26;99461.25;;;3.26;100.00
66560;BME280;53413;49.878;8.142;2022-11-20T07:10:52;99458.59;;;3.30;100.00
66560;BME280;53413;49.878;8.142;2022-11-20T07:13:17;99471.53;;;3.32;100.00
66560;BME280;53413;49.878;8.142;2022-11-20T07:15:43;99470.59;;;3.34;100.00
66560;BME280;53413;49.878;8.142;2022-11-20T07:18:08;99479.16;;;3.38;100.00
66560;BME280;53413;49.878;8.142;2022-11-20T07:20:33;99481.75;;;3.38;100.00
66560;BME280;53413;49.878;8.142;2022-11-20T07:22:59;99482.59;;;3.40;100.00
66560;BME280;53413;49.878;8.142;2022-11-20T07:25:25;99478.31;;;3.37;100.00
66560;BME280;53413;49.878;8.142;2022-11-20T07:27:51;99477.41;;;3.42;100.00
66560;BME280;53413;49.878;8.142;2022-11-20T07:30:17;99480.75;;;3.48;100.00
66560;BME280;53413;49.878;8.142;2022-11-20T07:32:46;99468.72;;;3.44;100.00
66560;BME280;53413;49.878;8.142;2022-11-20T07:35:11;99476.63;;;3.36;100.00
66560;BME280;53413;49.878;8.142;2022-11-20T07:37:38;99476.63;;;3.36;100.00
66560;BME280;53413;49.878;8.142;2022-11-20T07:40:03;99482.66;;;3.35;100.00
66560;BME280;53413;49.878;8.142;2022-11-20T07:42:29;99480.00;;;3.42;100.00
66560;BME280;53413;49.878;8.142;2022-11-20T07:44:54;99478.94;;;3.52;100.00
66560;BME280;53413;49.878;8.142;2022-11-20T07:47:19;99484.84;;;3.60;100.00
66560;BME280;53413;49.878;8.142;2022-11-20T07:49:46;99483.25;;;3.53;100.00
66560;BME280;53413;49.878;8.142;2022-11-20T07:52:11;99485.63;;;3.64;100.00
66560;BME280;53413;49.878;8.142;2022-11-20T07:54:36;99481.00;;;3.81;100.00
66560;BME280;53413;49.878;8.142;2022-11-20T07:57:01;99481.66;;;3.91;100.00
66560;BME280;53413;49.878;8.142;2022-11-20T07:59:27;99489.53;;;3.87;100.00
66560;BME280;53413;49.878;8.142;2022-11-20T08:01:52;99493.97;;;3.80;100.00
66560;BME280;53413;49.878;8.142;2022-11-20T08:04:17;99492.16;;;3.85;100.00
66560;BME280;53413;49.878;8.142;2022-11-20T08:06:43;99499.59;;;4.02;100.00
66560;BME280;53413;49.878;8.142;2022-11-20T08:09:08;99503.84;;;4.05;100.00
66560;BME280;53413;49.878;8.142;2022-11-20T08:11:34;99505.75;;;3.96;100.00
66560;BME280;53413;49.878;8.142;2022-11-20T08:14:18;99506.53;;;4.00;100.00
66560;BME280;53413;49.878;8.142;2022-11-20T08:16:48;99493.22;;;4.19;100.00
66560;BME280;53413;49.878;8.142;2022-11-20T08:19:16;99490.13;;;4.42;100.00
66560;BME280;53413;49.878;8.142;2022-11-20T08:21:42;99504.56;;;4.55;100.00
66560;BME280;53413;49.878;8.142;2022-11-20T08:24:09;99505.59;;;4.46;100.00
66560;BME280;53413;49.878;8.142;2022-11-20T08:26:35;99503.25;;;4.36;100.00
66560;BME280;53413;49.878;8.142;2022-11-20T08:29:02;99499.09;;;4.27;100.00
66560;BME280;53413;49.878;8.142;2022-11-20T08:31:28;99501.41;;;4.41;100.00
66560;BME280;53413;49.878;8.142;2022-11-20T08:33:53;99501.13;;;4.53;100.00
66560;BME280;53413;49.878;8.142;2022-11-20T08:36:20;99511.13;;;4.72;100.00
66560;BME280;53413;49.878;8.142;2022-11-20T08:38:47;99509.00;;;4.89;100.00
66560;BME280;53413;49.878;8.142;2022-11-20T08:41:14;99510.56;;;4.97;100.00
66560;BME280;53413;49.878;8.142;2022-11-20T08:44:00;99510.03;;;4.82;100.00
66560;BME280;53413;49.878;8.142;2022-11-20T08:46:36;99507.22;;;4.91;100.00
66560;BME280;53413;49.878;8.142;2022-11-20T08:49:07;99509.97;;;4.85;100.00
66560;BME280;53413;49.878;8.142;2022-11-20T08:51:33;99513.41;;;4.86;100.00
66560;BME280;53413;49.878;8.142;2022-11-20T08:53:58;99519.53;;;4.83;100.00
66560;BME280;53413;49.878;8.142;2022-11-20T08:56:24;99517.81;;;4.82;100.00
66560;BME280;53413;49.878;8.142;2022-11-20T08:58:50;99525.81;;;4.73;100.00
66560;BME280;53413;49.878;8.142;2022-11-20T09:01:16;99523.94;;;4.80;100.00
66560;BME280;53413;49.878;8.142;2022-11-20T09:03:42;99524.69;;;4.85;100.00
66560;BME280;53413;49.878;8.142;2022-11-20T09:06:07;99525.06;;;4.68;100.00
66560;BME280;53413;49.878;8.142;2022-11-20T09:08:33;99524.22;;;4.67;100.00
66560;BME280;53413;49.878;8.142;2022-11-20T09:11:00;99532.72;;;4.74;100.00
66560;BME280;53413;49.878;8.142;2022-11-20T09:13:27;99529.09;;;4.81;100.00
66560;BME280;53413;49.878;8.142;2022-11-20T09:15:54;99530.13;;;4.72;100.00
66560;BME280;53413;49.878;8.142;2022-11-20T09:18:19;99530.13;;;4.72;100.00
66560;BME280;53413;49.878;8.142;2022-11-20T09:20:45;99530.25;;;4.68;100.00
66560;BME280;53413;49.878;8.142;2022-11-20T09:23:10;99522.34;;;4.72;100.00
66560;BME280;53413;49.878;8.142;2022-11-20T09:25:35;99536.84;;;4.83;100.00
66560;BME280;53413;49.878;8.142;2022-11-20T09:28:01;99527.94;;;4.95;100.00
66560;BME280;53413;49.878;8.142;2022-11-20T09:30:26;99529.75;;;4.89;100.00
66560;BME280;53413;49.878;8.142;2022-11-20T09:32:52;99526.31;;;4.89;100.00
66560;BME280;53413;49.878;8.142;2022-11-20T09:35:17;99526.44;;;4.84;100.00
66560;BME280;53413;49.878;8.142;2022-11-20T09:37:43;99525.56;;;4.84;100.00
66560;BME280;53413;49.878;8.142;2022-11-20T09:40:27;99520.69;;;4.70;100.00
66560;BME280;53413;49.878;8.142;2022-11-20T09:43:06;99520.59;;;4.74;100.00
66560;BME280;53413;49.878;8.142;2022-11-20T09:45:44;99522.16;;;4.82;100.00
66560;BME280;53413;49.878;8.142;2022-11-20T09:51:30;99524.34;;;5.00;100.00
66560;BME280;53413;49.878;8.142;2022-11-20T09:54:15;99523.63;;;4.93;100.00
66560;BME280;53413;49.878;8.142;2022-11-20T09:56:49;99515.34;;;4.77;100.00
66560;BME280;53413;49.878;8.142;2022-11-20T09:59:29;99521.31;;;4.81;100.00
66560;BME280;53413;49.878;8.142;2022-11-20T10:01:59;99522.25;;;4.77;100.00
66560;BME280;53413;49.878;8.142;2022-11-20T10:04:28;99514.56;;;4.74;100.00
66560;BME280;53413;49.878;8.142;2022-11-20T10:10:03;99516.38;;;4.69;100.00
66560;BME280;53413;49.878;8.142;2022-11-20T10:15:33;99523.84;;;4.83;100.00
66560;BME280;53413;49.878;8.142;2022-11-20T10:18:24;99514.00;;;4.99;100.00
66560;BME280;53413;49.878;8.142;2022-11-20T10:23:49;99506.81;;;5.10;100.00
66560;BME280;53413;49.878;8.142;2022-11-20T10:29:05;99495.78;;;5.00;100.00
66560;BME280;53413;49.878;8.142;2022-11-20T10:31:35;99496.47;;;5.07;100.00
66560;BME280;53413;49.878;8.142;2022-11-20T10:34:25;99491.69;;;4.90;100.00
66560;BME280;53413;49.878;8.142;2022-11-20T10:36:58;99489.88;;;4.93;100.00
66560;BME280;53413;49.878;8.142;2022-11-20T10:42:29;99485.44;;;4.99;100.00
66560;BME280;53413;49.878;8.142;2022-11-20T10:45:09;99481.25;;;5.28;100.00
66560;BME280;53413;49.878;8.142;2022-11-20T10:47:38;99474.91;;;5.39;100.00
66560;BME280;53413;49.878;8.142;2022-11-20T10:50:08;99469.28;;;5.57;100.00
66560;BME280;53413;49.878;8.142;2022-11-20T10:55:26;99475.03;;;5.68;100.00
66560;BME280;53413;49.878;8.142;2022-11-20T11:00:24;99478.22;;;5.45;100.00
66560;BME280;53413;49.878;8.142;2022-11-20T11:02:51;99472.91;;;5.49;100.00
66560;BME280;53413;49.878;8.142;2022-11-20T11:07:49;99469.66;;;5.41;100.00
66560;BME280;53413;49.878;8.142;2022-11-20T11:10:23;99468.78;;;5.42;100.00
66560;BME280;53413;49.878;8.142;2022-11-20T11:12:49;99455.72;;;5.45;100.00
66560;BME280;53413;49.878;8.142;2022-11-20T11:15:38;99447.66;;;5.54;100.00
66560;BME280;53413;49.878;8.142;2022-11-20T11:18:04;99440.34;;;5.69;100.00
66560;BME280;53413;49.878;8.142;2022-11-20T11:20:30;99439.81;;;5.88;100.00
66560;BME280;53413;49.878;8.142;2022-11-20T11:22:58;99438.47;;;6.07;100.00
66560;BME280;53413;49.878;8.142;2022-11-20T11:25:35;99440.78;;;6.16;100.00
66560;BME280;53413;49.878;8.142;2022-11-20T11:28:20;99451.38;;;6.39;100.00
66560;BME280;53413;49.878;8.142;2022-11-20T11:30:46;99448.41;;;6.51;100.00
66560;BME280;53413;49.878;8.142;2022-11-20T11:35:56;99442.75;;;6.38;100.00
66560;BME280;53413;49.878;8.142;2022-11-20T11:38:34;99444.59;;;6.35;100.00
66560;BME280;53413;49.878;8.142;2022-11-20T11:41:01;99435.66;;;6.43;100.00
66560;BME280;53413;49.878;8.142;2022-11-20T11:43:30;99433.66;;;6.52;100.00
66560;BME280;53413;49.878;8.142;2022-11-20T11:49:14;99426.25;;;6.38;100.00
66560;BME280;53413;49.878;8.142;2022-11-20T11:52:00;99421.97;;;6.37;100.00
66560;BME280;53413;49.878;8.142;2022-11-20T11:57:01;99409.88;;;6.62;100.00
66560;BME280;53413;49.878;8.142;2022-11-20T12:02:20;99407.19;;;6.92;100.00
66560;BME280;53413;49.878;8.142;2022-11-20T12:05:03;99403.13;;;7.11;100.00
66560;BME280;53413;49.878;8.142;2022-11-20T12:07:40;99395.56;;;7.28;100.00
66560;BME280;53413;49.878;8.142;2022-11-20T12:10:15;99389.25;;;7.35;100.00
66560;BME280;53413;49.878;8.142;2022-11-20T12:12:44;99396.28;;;7.33;100.00
66560;BME280;53413;49.878;8.142;2022-11-20T12:15:21;99389.38;;;7.58;100.00
66560;BME280;53413;49.878;8.142;2022-11-20T12:17:48;99384.38;;;7.75;100.00
66560;BME280;53413;49.878;8.142;2022-11-20T12:20:14;99385.34;;;7.96;100.00
66560;BME280;53413;49.878;8.142;2022-11-20T12:25:48;99379.16;;;7.75;100.00
66560;BME280;53413;49.878;8.142;2022-11-20T12:28:26;99379.69;;;7.60;100.00
66560;BME280;53413;49.878;8.142;2022-11-20T12:31:08;99376.91;;;7.40;100.00
66560;BME280;53413;49.878;8.142;2022-11-20T12:36:45;99381.56;;;7.56;100.00
66560;BME280;53413;49.878;8.142;2022-11-20T12:53:10;99363.31;;;7.80;100.00
66560;BME280;53413;49.878;8.142;2022-11-20T12:55:48;99364.31;;;7.77;100.00
66560;BME280;53413;49.878;8.142;2022-11-20T12:59:08;99373.75;;;7.80;100.00
66560;BME280;53413;49.878;8.142;2022-11-20T13:01:24;99365.47;;;7.68;100.00
66560;BME280;53413;49.878;8.142;2022-11-20T13:06:43;99357.91;;;7.62;100.00
66560;BME280;53413;49.878;8.142;2022-11-20T13:09:11;99352.28;;;7.73;100.00
66560;BME280;53413;49.878;8.142;2022-11-20T13:17:38;99341.63;;;7.79;100.00
66560;BME280;53413;49.878;8.142;2022-11-20T13:20:11;99344.28;;;7.78;100.00
66560;BME280;53413;49.878;8.142;2022-11-20T13:22:49;99342.81;;;7.70;100.00
66560;BME280;53413;49.878;8.142;2022-11-20T13:25:36;99335.53;;;7.55;100.00
66560;BME280;53413;49.878;8.142;2022-11-20T13:30:35;99331.19;;;7.06;100.00
66560;BME280;53413;49.878;8.142;2022-11-20T13:33:20;99331.81;;;6.88;100.00
66560;BME280;53413;49.878;8.142;2022-11-20T13:36:21;99336.25;;;6.59;100.00
66560;BME280;53413;49.878;8.142;2022-11-20T13:38:50;99328.19;;;6.40;100.00
66560;BME280;53413;49.878;8.142;2022-11-20T13:44:14;99321.41;;;6.34;100.00
66560;BME280;53413;49.878;8.142;2022-11-20T13:46:45;99314.25;;;6.41;100.00
66560;BME280;53413;49.878;8.142;2022-11-20T13:49:32;99320.94;;;6.50;100.00
66560;BME280;53413;49.878;8.142;2022-11-20T13:52:26;99315.50;;;6.56;100.00
66560;BME280;53413;49.878;8.142;2022-11-20T13:54:58;99310.28;;;6.57;100.00
66560;BME280;53413;49.878;8.142;2022-11-20T13:58:28;99303.91;;;6.66;100.00
66560;BME280;53413;49.878;8.142;2022-11-20T14:00:43;99300.34;;;6.69;100.00
66560;BME280;53413;49.878;8.142;2022-11-20T14:03:18;99287.50;;;6.64;100.00
66560;BME280;53413;49.878;8.142;2022-11-20T14:05:54;99287.69;;;6.58;100.00
66560;BME280;53413;49.878;8.142;2022-11-20T14:08:40;99292.25;;;6.51;100.00
66560;BME280;53413;49.878;8.142;2022-11-20T14:11:19;99289.69;;;6.50;100.00
66560;BME280;53413;49.878;8.142;2022-11-20T14:13:57;99296.66;;;6.49;100.00
66560;BME280;53413;49.878;8.142;2022-11-20T14:16:24;99288.16;;;6.44;100.00
66560;BME280;53413;49.878;8.142;2022-11-20T14:18:50;99297.09;;;6.35;100.00
66560;BME280;53413;49.878;8.142;2022-11-20T14:21:29;99286.78;;;6.32;100.00
66560;BME280;53413;49.878;8.142;2022-11-20T14:24:11;99289.28;;;6.35;100.00